Hlavní strana
METAR-TAF:

METAR-TAF

Letiště :

Columbus, Indiana, Spojené státy americké

zeměpisná šířka: 39-16N, zeměpisná délka: 085-54W, výška: 200 m

Aktuální stav počasí

Zpráva byla vytvořena před 6 hodinami a 52 minutami, v 01:45 UTC
Západní vítr 15 kt s nárazy do 27 kt
Teplota 22°C
Vlhkost vzduchu 65%
Tlak 1014 hPa
Viditelnost: 12.9 km
Polojasno ve výšce 4000 ft
Oblačno až skoro zataženo ve výšce 7000 ft, Cumulonimbus.
Zataženo ve výšce 8000 ft
bouřka, slabý déšť

METAR: KBAK 290145Z 27015G27KT 8SM -TSRA SCT040 BKN070CB OVC080 22/15 A2993 RMK OCNL LTGCCCG TS NW MOVG SE LAST

Čas: 04:37 (08:37 UTC)


TAF: chybějící

Stav a předpovědi počasí z více než 4 000 letišť (zprávy METAR a TAF).

Červené a žluté tečky na mapě představují dostupné meteorologické stanice.

Když kurzor umístíte na tečku, zobrazí se název stanice.

Pak kliknutím zobrazíte stav a předpověď počasí.

Chcete-li změnit mapu, kliknutím na zelené tlačítko se znaménkem +mapu přiblížíte, kliknutím na zelené tlačítko se znaménkem – mapu oddálíte a kliknutím na zelené šipky přejdete na sousední mapy.


METAR-TAF: